Time;durP1;ratioP1;P1;durP2;ratioP2;P2;SDS_P1;SDS_P2;PMS_P1;PMS_P2;Temp;Humidity;BMP_temperature;BMP_pressure;BME280_temperature;BME280_humidity;BME280_pressure;Samples;Min_cycle;Max_cycle;Signal;HPM_P1;HPM_P2
2023/12/15 00:01:28;;;;;;;131.32;121.63;;;;;;;7.95;100.00;100973.69;5036135;28;20718;-73
2023/12/15 00:03:55;;;;;;;150.65;139.05;;;;;;;7.77;100.00;100979.31;5039781;28;20056;-73
2023/12/15 00:06:24;;;;;;;132.57;123.18;;;;;;;8.08;100.00;100991.53;5031811;28;20058;-73
2023/12/15 00:08:50;;;;;;;154.55;143.40;;;;;;;7.74;100.00;100995.53;5034791;28;20504;-73
2023/12/15 00:11:17;;;;;;;160.10;148.25;;;;;;;7.66;100.00;100990.34;5041062;28;20053;-73
2023/12/15 00:13:44;;;;;;;124.97;116.28;;;;;;;8.08;100.00;100995.03;5038450;28;20046;-73
2023/12/15 00:16:11;;;;;;;166.32;154.43;;;;;;;7.87;100.00;100990.47;5033319;28;20144;-73
2023/12/15 00:18:38;;;;;;;136.60;126.70;;;;;;;8.09;100.00;100995.84;5033211;28;20825;-79
2023/12/15 00:21:05;;;;;;;143.57;133.18;;;;;;;8.04;100.00;101014.91;5034370;28;20065;-79
2023/12/15 00:23:34;;;;;;;137.23;127.15;;;;;;;8.03;100.00;101016.75;5043090;28;20592;-79
2023/12/15 00:26:01;;;;;;;114.93;106.47;;;;;;;7.93;100.00;101029.41;5035247;28;20686;-79
2023/12/15 00:28:30;;;;;;;137.10;127.07;;;;;;;8.07;100.00;101027.78;5032404;28;20042;-79
2023/12/15 00:30:59;;;;;;;131.80;121.93;;;;;;;7.84;100.00;101045.53;5035352;28;20049;-79
2023/12/15 00:33:26;;;;;;;129.30;119.53;;;;;;;8.01;100.00;101045.19;5036527;28;20056;-79
2023/12/15 00:35:54;;;;;;;114.80;106.00;;;;;;;8.06;100.00;101055.25;5037816;28;20052;-78
2023/12/15 00:38:21;;;;;;;121.32;111.97;;;;;;;7.92;100.00;101059.50;5038899;28;20067;-79
2023/12/15 00:40:49;;;;;;;117.75;108.45;;;;;;;8.06;100.00;101062.34;5034358;28;20053;-79
2023/12/15 00:43:18;;;;;;;141.27;130.15;;;;;;;7.93;100.00;101060.34;5034959;28;20137;-79
2023/12/15 00:45:45;;;;;;;154.27;141.93;;;;;;;7.84;100.00;101061.38;5035292;28;20433;-79
2023/12/15 00:48:21;;;;;;;134.98;124.72;;;;;;;7.95;100.00;101055.66;5038274;28;20072;-79
2023/12/15 00:50:51;;;;;;;174.65;161.18;;;;;;;7.74;100.00;101045.78;5034936;28;20437;-79
2023/12/15 00:53:19;;;;;;;126.90;117.10;;;;;;;7.92;100.00;101062.13;5035194;28;20053;-73
2023/12/15 00:55:46;;;;;;;144.27;133.02;;;;;;;8.00;100.00;101069.19;5027957;28;20720;-74
2023/12/15 00:58:15;;;;;;;146.82;135.48;;;;;;;7.56;100.00;101078.66;5031877;28;20432;-73
2023/12/15 01:00:43;;;;;;;153.80;141.80;;;;;;;7.61;100.00;101074.66;5036192;28;20162;-73
2023/12/15 01:03:10;;;;;;;167.95;154.55;;;;;;;7.62;100.00;101077.09;5033187;28;20132;-74
2023/12/15 01:05:37;;;;;;;166.63;152.80;;;;;;;7.76;100.00;101054.38;5032703;28;20053;-73
2023/12/15 01:08:05;;;;;;;157.90;145.60;;;;;;;7.87;100.00;101047.84;5037180;28;20460;-73
2023/12/15 01:10:33;;;;;;;147.13;135.93;;;;;;;8.04;100.00;101051.94;5028644;28;20049;-74
2023/12/15 01:13:00;;;;;;;159.82;148.02;;;;;;;8.01;100.00;101054.94;5040546;28;20053;-73
2023/12/15 01:15:28;;;;;;;140.40;130.00;;;;;;;8.08;100.00;101055.88;5040497;28;20063;-74
2023/12/15 01:17:55;;;;;;;156.15;144.30;;;;;;;7.88;100.00;101050.28;5043155;28;20045;-74
2023/12/15 01:20:22;;;;;;;124.07;115.00;;;;;;;7.96;100.00;101059.97;5030764;28;20445;-73
2023/12/15 01:22:49;;;;;;;109.80;101.70;;;;;;;7.86;100.00;101060.22;5031453;28;20862;-74
2023/12/15 01:25:16;;;;;;;118.38;109.85;;;;;;;7.96;100.00;101060.78;5034602;28;20056;-73
2023/12/15 01:27:43;;;;;;;133.45;123.50;;;;;;;7.69;100.00;101067.47;5034901;28;20761;-73
2023/12/15 01:30:10;;;;;;;111.38;102.88;;;;;;;7.82;100.00;101066.88;5031958;28;20411;-74
2023/12/15 01:32:38;;;;;;;134.35;124.20;;;;;;;7.81;100.00;101067.88;5032136;28;20408;-74
2023/12/15 01:35:06;;;;;;;127.57;118.32;;;;;;;7.76;100.00;101075.53;5037927;28;20049;-73
2023/12/15 01:37:33;;;;;;;112.20;104.00;;;;;;;7.90;100.00;101077.38;5035555;28;20114;-73
2023/12/15 01:40:01;;;;;;;131.95;122.10;;;;;;;7.79;100.00;101083.09;5031449;28;20060;-74
2023/12/15 01:42:30;;;;;;;128.90;119.10;;;;;;;7.72;100.00;101080.34;5036702;28;20045;-79
2023/12/15 01:44:57;;;;;;;124.47;115.18;;;;;;;7.92;100.00;101090.41;5033526;28;20045;-74
2023/12/15 01:47:25;;;;;;;112.65;104.13;;;;;;;7.84;100.00;101083.41;5040235;28;20049;-73
2023/12/15 01:49:53;;;;;;;120.80;111.30;;;;;;;7.63;100.00;101092.00;5041701;28;20042;-73
2023/12/15 01:52:20;;;;;;;133.93;123.40;;;;;;;7.68;100.00;101092.25;5031965;28;20452;-74
2023/12/15 01:54:47;;;;;;;123.05;113.43;;;;;;;7.74;100.00;101085.44;5040342;28;20529;-73
2023/12/15 01:57:15;;;;;;;116.90;107.68;;;;;;;7.66;100.00;101102.22;5034043;28;20049;-79
2023/12/15 01:59:43;;;;;;;157.98;145.63;;;;;;;7.77;100.00;101096.47;5034138;28;20046;-79
2023/12/15 02:02:09;;;;;;;149.45;137.60;;;;;;;7.75;100.00;101105.63;5035860;28;20432;-79
2023/12/15 02:04:37;;;;;;;160.63;146.27;;;;;;;7.80;100.00;101108.53;5036507;28;20041;-74
2023/12/15 02:07:06;;;;;;;141.57;130.77;;;;;;;7.87;100.00;101101.53;5037444;28;20045;-79
2023/12/15 02:09:33;;;;;;;149.18;137.85;;;;;;;7.77;100.00;101108.88;5035502;28;20045;-79
2023/12/15 02:12:00;;;;;;;121.13;112.18;;;;;;;7.80;100.00;101101.41;5037974;28;20750;-79
2023/12/15 02:14:26;;;;;;;154.40;142.77;;;;;;;7.64;100.00;101108.66;5035761;28;20040;-79
2023/12/15 02:16:53;;;;;;;96.50;89.25;;;;;;;7.64;100.00;101127.19;5039501;28;20069;-78
2023/12/15 02:19:21;;;;;;;104.22;96.15;;;;;;;7.34;100.00;101138.44;5031163;28;20049;-73
2023/12/15 02:21:49;;;;;;;122.80;113.30;;;;;;;6.95;100.00;101145.56;5035787;28;20041;-73
2023/12/15 02:24:17;;;;;;;112.22;103.40;;;;;;;7.03;100.00;101158.75;5033649;28;20049;-79
2023/12/15 02:26:44;;;;;;;117.45;108.28;;;;;;;6.85;100.00;101166.91;5037207;28;20596;-78
2023/12/15 02:29:11;;;;;;;125.40;115.70;;;;;;;6.72;100.00;101161.31;5033450;28;20048;-78
2023/12/15 02:31:37;;;;;;;125.85;116.10;;;;;;;6.70;100.00;101166.78;5029434;28;20041;-79
2023/12/15 02:34:04;;;;;;;129.45;119.57;;;;;;;6.59;100.00;101175.88;5031430;28;20062;-78
2023/12/15 02:36:38;;;;;;;156.18;144.10;;;;;;;6.92;100.00;101167.03;5032026;28;20464;-78
2023/12/15 02:39:05;;;;;;;129.93;120.03;;;;;;;6.45;100.00;101181.03;5034383;28;20067;-78
2023/12/15 02:41:34;;;;;;;145.63;134.82;;;;;;;6.59;100.00;101180.31;5034389;28;20053;-79
2023/12/15 02:44:00;;;;;;;127.80;118.85;;;;;;;6.14;100.00;101198.38;5042778;28;20049;-79
2023/12/15 02:46:30;;;;;;;116.70;108.20;;;;;;;6.18;100.00;101197.03;5032726;28;20041;-78
2023/12/15 02:48:57;;;;;;;107.38;99.05;;;;;;;6.15;100.00;101199.19;5039400;28;20044;-78
2023/12/15 02:51:33;;;;;;;111.05;102.25;;;;;;;6.28;100.00;101207.41;5040462;28;20060;-79
2023/12/15 02:54:01;;;;;;;119.20;110.47;;;;;;;6.30;100.00;101215.19;5032006;28;20055;-78
2023/12/15 02:56:30;;;;;;;100.55;92.95;;;;;;;5.95;100.00;101220.59;5029437;28;20045;-79
2023/12/15 02:58:59;;;;;;;96.28;88.78;;;;;;;6.05;100.00;101209.06;5040739;28;21306;-78
2023/12/15 03:01:28;;;;;;;107.20;99.40;;;;;;;5.98;100.00;101211.53;5044720;28;20037;-78
2023/12/15 03:03:55;;;;;;;101.45;94.05;;;;;;;6.27;100.00;101232.16;5033154;28;20061;-78
2023/12/15 03:06:22;;;;;;;111.63;103.80;;;;;;;5.77;100.00;101221.69;5037529;28;20041;-78
2023/12/15 03:08:49;;;;;;;109.30;101.50;;;;;;;5.77;100.00;101233.03;5037550;28;20045;-78
2023/12/15 03:11:16;;;;;;;100.50;93.15;;;;;;;5.59;100.00;101237.63;5037660;28;20417;-79
2023/12/15 03:13:42;;;;;;;119.35;110.70;;;;;;;5.60;100.00;101236.63;5038875;28;20045;-78
2023/12/15 03:16:17;;;;;;;103.82;96.13;;;;;;;5.57;100.00;101236.94;5037127;28;20053;-79
2023/12/15 03:18:44;;;;;;;96.90;89.70;;;;;;;5.28;100.00;101241.63;5035340;28;20100;-79
2023/12/15 03:21:11;;;;;;;111.32;103.25;;;;;;;5.46;100.00;101248.63;5038501;28;20056;-79
2023/12/15 03:23:40;;;;;;;120.47;111.88;;;;;;;5.74;100.00;101251.81;5039704;28;20053;-78
2023/12/15 03:26:07;;;;;;;108.85;100.85;;;;;;;5.54;100.00;101248.66;5037542;28;20439;-78
2023/12/15 03:28:34;;;;;;;108.75;100.55;;;;;;;5.62;100.00;101250.47;5041375;28;20543;-78
2023/12/15 03:31:01;;;;;;;100.85;93.15;;;;;;;5.33;100.00;101258.78;5034642;28;20547;-78
2023/12/15 03:33:34;;;;;;;98.85;91.25;;;;;;;5.41;100.00;101269.34;5038286;28;20053;-78
2023/12/15 03:36:01;;;;;;;102.00;94.03;;;;;;;5.36;100.00;101269.81;5032129;28;20045;-78
2023/12/15 03:38:28;;;;;;;97.43;89.38;;;;;;;5.14;100.00;101273.00;5035360;28;20049;-78
2023/12/15 03:40:55;;;;;;;103.97;95.97;;;;;;;5.19;100.00;101281.25;5036380;28;20057;-78
2023/12/15 03:43:21;;;;;;;91.63;84.32;;;;;;;4.85;100.00;101281.22;5023311;28;20049;-78
2023/12/15 03:45:48;;;;;;;83.53;76.90;;;;;;;4.74;100.00;101288.38;5042014;28;20436;-78
2023/12/15 03:48:15;;;;;;;92.05;84.88;;;;;;;4.72;100.00;101271.94;5033977;28;20049;-78
2023/12/15 03:50:44;;;;;;;109.32;101.32;;;;;;;4.90;100.00;101282.44;5042616;28;20041;-79
2023/12/15 03:53:13;;;;;;;130.35;121.22;;;;;;;4.57;100.00;101284.00;5040761;28;20676;-79
2023/12/15 03:55:40;;;;;;;117.47;109.05;;;;;;;4.57;100.00;101302.41;5039212;28;20045;-78
2023/12/15 03:58:06;;;;;;;107.78;100.03;;;;;;;5.16;100.00;101310.53;5027652;28;20061;-78
2023/12/15 04:00:34;;;;;;;123.70;114.90;;;;;;;4.83;100.00;101311.16;5035768;28;20052;-73
2023/12/15 04:03:01;;;;;;;122.65;113.68;;;;;;;4.64;100.00;101310.53;5030680;28;20119;-73
2023/12/15 04:05:29;;;;;;;132.23;122.80;;;;;;;4.45;100.00;101314.97;5031768;28;20048;-73
2023/12/15 04:07:59;;;;;;;125.78;117.00;;;;;;;4.54;100.00;101321.97;5038667;28;20059;-73
2023/12/15 04:10:25;;;;;;;123.18;114.82;;;;;;;4.54;100.00;101321.13;5037762;28;20041;-73
2023/12/15 04:12:52;;;;;;;113.90;105.45;;;;;;;4.81;100.00;101331.56;5035078;28;20076;-73
2023/12/15 04:15:19;;;;;;;101.18;93.47;;;;;;;4.43;100.00;101334.50;5040850;28;20532;-77
2023/12/15 04:17:46;;;;;;;107.35;99.70;;;;;;;4.44;100.00;101338.78;5040695;28;20882;-73
2023/12/15 04:20:13;;;;;;;113.75;105.65;;;;;;;4.54;100.00;101337.75;5038182;28;20044;-73
2023/12/15 04:22:40;;;;;;;104.63;96.95;;;;;;;5.04;100.00;101347.66;5040810;28;20045;-78
2023/12/15 04:25:10;;;;;;;91.50;84.45;;;;;;;4.44;100.00;101349.31;5033939;28;20064;-73
2023/12/15 04:27:47;;;;;;;99.50;92.35;;;;;;;4.50;100.00;101356.59;5031635;28;20136;-77
2023/12/15 04:30:22;;;;;;;91.15;84.45;;;;;;;4.78;100.00;101363.44;5040744;28;20135;-77
2023/12/15 04:32:49;;;;;;;84.20;77.70;;;;;;;4.74;100.00;101366.50;5031468;28;20798;-78
2023/12/15 04:35:19;;;;;;;108.93;101.38;;;;;;;4.64;100.00;101371.03;5034308;28;20057;-73
2023/12/15 04:37:45;;;;;;;107.40;99.93;;;;;;;4.47;100.00;101383.22;5031946;28;20059;-73
2023/12/15 04:40:15;;;;;;;93.28;86.57;;;;;;;4.75;100.00;101387.44;5034067;28;20060;-73
2023/12/15 04:42:42;;;;;;;94.75;88.05;;;;;;;4.83;100.00;101392.75;5030982;28;20057;-73
2023/12/15 04:45:10;;;;;;;84.53;78.25;;;;;;;4.37;100.00;101399.06;5031141;28;20053;-73
2023/12/15 04:47:38;;;;;;;85.05;78.65;;;;;;;4.70;100.00;101400.22;5036667;28;20460;-73
2023/12/15 04:50:05;;;;;;;97.35;90.75;;;;;;;4.41;100.00;101396.97;5035114;28;20046;-73
2023/12/15 04:52:33;;;;;;;79.90;74.00;;;;;;;4.53;100.00;101399.22;5035723;28;20045;-73
2023/12/15 04:55:00;;;;;;;83.07;76.57;;;;;;;4.43;100.00;101397.63;5036544;28;20079;-73
2023/12/15 04:57:29;;;;;;;92.32;85.63;;;;;;;5.80;100.00;101385.63;5035236;28;20079;-83
2023/12/15 04:59:56;;;;;;;74.13;68.57;;;;;;;4.79;100.00;101399.31;5042834;28;20045;-76
2023/12/15 05:02:23;;;;;;;65.82;60.63;;;;;;;4.35;100.00;101412.34;5044929;28;20049;-83
2023/12/15 05:05:01;;;;;;;75.13;69.53;;;;;;;4.35;100.00;101412.34;5048090;28;20069;-83
2023/12/15 05:07:31;;;;;;;98.07;91.32;;;;;;;4.56;100.00;101430.50;5049149;28;20049;-83
2023/12/15 05:09:59;;;;;;;76.88;71.07;;;;;;;4.38;100.00;101431.44;5045551;28;20041;-83
2023/12/15 05:12:28;;;;;;;69.82;64.32;;;;;;;4.47;100.00;101425.28;5046720;28;20053;-83
2023/12/15 05:14:57;;;;;;;82.38;76.28;;;;;;;4.83;100.00;101429.59;5043857;28;20106;-83
2023/12/15 05:17:23;;;;;;;78.53;72.32;;;;;;;4.21;100.00;101428.66;5045004;28;20057;-83
2023/12/15 05:19:50;;;;;;;79.13;72.80;;;;;;;4.21;100.00;101441.78;5042038;28;20046;-84
2023/12/15 05:22:17;;;;;;;77.70;71.45;;;;;;;4.56;100.00;101450.72;5031889;28;20429;-76
2023/12/15 05:24:44;;;;;;;75.10;69.10;;;;;;;4.46;100.00;101457.84;5029037;28;20059;-76
2023/12/15 05:27:11;;;;;;;72.63;67.03;;;;;;;4.60;100.00;101462.63;5030997;28;20049;-77
2023/12/15 05:29:47;;;;;;;77.00;71.30;;;;;;;4.82;100.00;101462.16;5027986;28;20063;-77
2023/12/15 05:32:15;;;;;;;78.80;72.80;;;;;;;4.67;100.00;101465.47;5032162;28;20049;-76
2023/12/15 05:34:42;;;;;;;86.63;80.13;;;;;;;4.43;100.00;101473.94;5031574;28;20439;-76
2023/12/15 05:37:10;;;;;;;85.75;79.50;;;;;;;4.58;100.00;101478.53;5029947;28;20132;-77
2023/12/15 05:39:37;;;;;;;78.72;72.60;;;;;;;4.36;100.00;101484.22;5027442;28;21296;-77
2023/12/15 05:42:04;;;;;;;67.38;61.97;;;;;;;4.53;100.00;101485.22;5023292;28;20037;-76
2023/12/15 05:44:31;;;;;;;64.80;59.45;;;;;;;4.19;100.00;101487.59;5029833;28;20414;-77
2023/12/15 05:46:59;;;;;;;69.70;64.13;;;;;;;4.72;100.00;101503.53;5030019;28;20057;-77
2023/12/15 05:49:41;;;;;;;69.97;64.38;;;;;;;4.20;100.00;101499.78;5048482;28;20049;-84
2023/12/15 05:52:09;;;;;;;72.10;66.35;;;;;;;4.44;100.00;101510.59;5049294;28;20041;-83
2023/12/15 05:54:36;;;;;;;70.28;64.47;;;;;;;4.15;100.00;101505.47;5052014;28;20049;-85
2023/12/15 05:57:05;;;;;;;67.80;62.10;;;;;;;4.33;100.00;101516.88;5045980;28;20038;-84
2023/12/15 05:59:32;;;;;;;73.28;67.65;;;;;;;4.04;100.00;101517.00;5047984;28;20050;-85
2023/12/15 06:01:59;;;;;;;67.40;61.72;;;;;;;4.40;100.00;101521.56;5049817;28;20051;-83
2023/12/15 06:04:29;;;;;;;77.53;71.82;;;;;;;4.15;100.00;101523.88;5048454;28;20121;-83
2023/12/15 06:07:01;;;;;;;70.38;65.20;;;;;;;3.89;100.00;101516.63;5043838;28;20797;-85
2023/12/15 06:09:31;;;;;;;77.47;71.78;;;;;;;4.88;100.00;101515.22;5037772;28;20045;-85
2023/12/15 06:12:05;;;;;;;67.97;62.83;;;;;;;4.35;100.00;101522.00;5030360;28;20042;-84
2023/12/15 06:14:32;;;;;;;70.55;65.22;;;;;;;4.13;100.00;101531.91;5030168;28;20056;-83
2023/12/15 06:17:00;;;;;;;72.60;67.50;;;;;;;3.85;100.00;101532.84;5034707;28;20048;-83
2023/12/15 06:19:28;;;;;;;78.78;72.93;;;;;;;3.82;100.00;101539.19;5034885;28;20493;-84
2023/12/15 06:21:56;;;;;;;80.32;74.15;;;;;;;4.63;100.00;101537.78;5033193;28;20058;-89
2023/12/15 06:24:28;;;;;;;80.13;74.45;;;;;;;4.24;100.00;101544.06;5040560;28;20057;-76
2023/12/15 06:26:55;;;;;;;;;;;;;;;4.01;100.00;101546.19;5029640;28;20052;-80
2023/12/15 06:29:22;;;;;;;70.97;65.55;;;;;;;4.25;100.00;101548.34;5031587;28;19925;-85
2023/12/15 06:31:56;;;;;;;64.10;59.10;;;;;;;3.85;100.00;101564.38;5028162;28;20049;-85
2023/12/15 06:34:22;;;;;;;63.83;59.03;;;;;;;3.66;100.00;101560.81;5029360;28;20053;-86
2023/12/15 06:36:52;;;;;;;65.32;60.33;;;;;;;3.73;100.00;101573.38;5026270;28;20509;-85
2023/12/15 06:39:19;;;;;;;71.45;66.07;;;;;;;3.79;100.00;101572.81;5036453;28;20041;-85
2023/12/15 06:41:48;;;;;;;70.43;65.03;;;;;;;3.86;100.00;101587.03;5025220;28;20127;-85
2023/12/15 06:44:15;;;;;;;72.47;66.88;;;;;;;3.74;100.00;101589.00;5024140;28;20108;-85
2023/12/15 06:46:42;;;;;;;70.22;64.80;;;;;;;3.65;100.00;101593.28;5025904;28;20054;-87
2023/12/15 06:49:10;;;;;;;69.05;63.70;;;;;;;3.65;100.00;101601.16;5028256;28;20061;-86
2023/12/15 06:51:43;;;;;;;66.78;61.67;;;;;;;3.81;100.00;101602.41;5024807;28;20049;-85
2023/12/15 06:54:19;;;;;;;67.25;62.25;;;;;;;3.77;100.00;101614.16;5025601;28;20079;-86
2023/12/15 06:56:47;;;;;;;67.20;62.20;;;;;;;3.62;100.00;101617.19;5023717;28;20041;-85
2023/12/15 06:59:14;;;;;;;68.35;63.15;;;;;;;4.11;100.00;101631.16;5027424;28;20081;-85
2023/12/15 07:01:41;;;;;;;68.00;62.85;;;;;;;3.85;100.00;101636.16;4678088;28;9999798;-86
2023/12/15 07:04:08;;;;;;;65.93;60.83;;;;;;;3.82;100.00;101640.88;5025809;28;20041;-86
2023/12/15 07:06:35;;;;;;;63.97;59.17;;;;;;;4.54;100.00;101647.38;5027653;28;20132;-86
2023/12/15 07:09:02;;;;;;;66.72;61.80;;;;;;;3.75;100.00;101645.84;5029598;28;20052;-86
2023/12/15 07:11:31;;;;;;;80.68;75.03;;;;;;;4.97;100.00;101648.59;5026527;28;20560;-86
2023/12/15 07:14:01;;;;;;;65.18;60.28;;;;;;;3.75;100.00;101647.63;5026781;28;20042;-87
2023/12/15 07:16:30;;;;;;;66.70;61.80;;;;;;;3.86;100.00;101647.50;5021723;28;20046;-87
2023/12/15 07:18:59;;;;;;;61.40;56.78;;;;;;;3.73;100.00;101665.34;5027611;28;20406;-87
2023/12/15 07:21:27;;;;;;;64.25;59.55;;;;;;;3.71;100.00;101675.97;5030361;28;20079;-87
2023/12/15 07:23:55;;;;;;;65.40;60.70;;;;;;;3.75;100.00;101677.38;5030322;28;20049;-86
2023/12/15 07:26:22;;;;;;;67.65;62.95;;;;;;;3.76;100.00;101691.34;5026281;28;20053;-86
2023/12/15 07:28:48;;;;;;;66.57;61.95;;;;;;;3.67;100.00;101687.75;5029986;28;20707;-86
2023/12/15 07:31:18;;;;;;;65.03;60.42;;;;;;;3.72;100.00;101680.25;5027053;28;20049;-86
2023/12/15 07:33:45;;;;;;;68.13;63.28;;;;;;;3.57;100.00;101679.84;5028405;28;20599;-87
2023/12/15 07:36:12;;;;;;;65.43;60.75;;;;;;;3.81;100.00;101692.59;5030343;28;20111;-77
2023/12/15 07:38:39;;;;;;;66.10;61.20;;;;;;;3.75;100.00;101687.03;5033920;28;20060;-87
2023/12/15 07:41:06;;;;;;;64.13;59.50;;;;;;;3.79;100.00;101693.69;5028377;28;20435;-87
2023/12/15 08:24:07;;;;;;;59.78;55.28;;;;;;;3.77;100.00;101741.13;4912010;29;20110;-78
2023/12/15 08:26:33;;;;;;;60.70;56.15;;;;;;;3.84;100.00;101754.53;5005519;28;20077;-87
2023/12/15 08:29:00;;;;;;;60.90;56.30;;;;;;;3.94;100.00;101760.66;5023872;28;20052;-86
2023/12/15 08:31:38;;;;;;;60.72;56.13;;;;;;;4.08;100.00;101762.88;5034968;28;20041;-87
2023/12/15 08:34:05;;;;;;;62.85;57.95;;;;;;;3.97;100.00;101752.50;5033633;28;20061;-87
2023/12/15 08:36:32;;;;;;;63.22;58.35;;;;;;;3.95;100.00;101757.06;5031793;28;20792;-87
2023/12/15 08:38:59;;;;;;;61.97;57.47;;;;;;;3.87;100.00;101744.63;5030453;28;20063;-87
2023/12/15 08:41:27;;;;;;;62.88;58.45;;;;;;;3.92;100.00;101746.00;5031050;28;20072;-86
2023/12/15 08:44:01;;;;;;;67.50;62.92;;;;;;;4.18;100.00;101751.56;5031071;28;20054;-85
2023/12/15 08:46:31;;;;;;;68.47;63.70;;;;;;;4.11;100.00;101753.88;5033432;28;20045;-86
2023/12/15 09:13:10;;;;;;;74.13;69.32;;;;;;;4.18;100.00;101788.38;4990110;28;20064;-77
2023/12/15 09:15:49;;;;;;;67.47;62.72;;;;;;;4.11;100.00;101788.91;5031715;28;20053;-77
2023/12/15 09:18:20;;;;;;;64.50;59.90;;;;;;;4.09;100.00;101793.47;5034758;28;20051;-77
2023/12/15 09:20:47;;;;;;;65.50;60.80;;;;;;;3.84;100.00;101792.19;5031514;28;20505;-77
2023/12/15 09:23:14;;;;;;;69.55;64.22;;;;;;;3.96;100.00;101805.19;5031612;28;20414;-77
2023/12/15 09:25:41;;;;;;;72.30;67.53;;;;;;;3.72;100.00;101801.13;5035013;28;20049;-77
2023/12/15 09:28:10;;;;;;;76.22;71.22;;;;;;;3.81;100.00;101817.91;5032148;28;20049;-77
2023/12/15 09:30:37;;;;;;;67.97;63.28;;;;;;;3.86;100.00;101816.53;5031309;28;20054;-77
2023/12/15 09:33:04;;;;;;;68.82;64.18;;;;;;;3.85;100.00;101822.75;5034423;28;20041;-77
2023/12/15 09:35:32;;;;;;;69.82;65.00;;;;;;;3.82;100.00;101838.81;5031678;28;20049;-77
2023/12/15 09:37:59;;;;;;;66.60;62.08;;;;;;;3.80;100.00;101842.53;5036173;28;20445;-86
2023/12/15 09:40:35;;;;;;;70.55;65.75;;;;;;;3.81;100.00;101850.28;5030345;28;20050;-86
2023/12/15 09:43:12;;;;;;;63.30;58.80;;;;;;;4.08;100.00;101854.88;5034050;28;20046;-86
2023/12/15 09:45:39;;;;;;;70.75;65.90;;;;;;;3.85;100.00;101848.22;5033612;28;20076;-86
2023/12/15 09:48:07;;;;;;;64.90;60.42;;;;;;;3.99;100.00;101839.09;5034499;28;20053;-86
2023/12/15 09:50:45;;;;;;;63.40;59.05;;;;;;;3.85;100.00;101846.41;5028718;28;20082;-87
2023/12/15 10:00:18;;;;;;;72.05;67.15;;;;;;;3.75;100.00;101856.09;5015761;28;20044;-77
2023/12/15 10:02:45;;;;;;;71.53;66.72;;;;;;;4.02;100.00;101865.13;5036191;28;20085;-86
2023/12/15 10:05:11;;;;;;;75.43;70.47;;;;;;;3.70;100.00;101862.69;5035455;28;20071;-85
2023/12/15 10:07:45;;;;;;;66.95;61.95;;;;;;;4.08;100.00;101873.28;5033631;28;20042;-86
2023/12/15 10:10:18;;;;;;;62.72;57.80;;;;;;;3.77;100.00;101867.28;5033183;28;20053;-78
2023/12/15 10:12:46;;;;;;;63.20;58.50;;;;;;;3.80;100.00;101869.63;5021490;28;20049;-86
2023/12/15 10:42:59;;;;;;;59.15;54.65;;;;;;;3.52;100.00;101892.22;5028099;28;20044;-79
2023/12/15 10:45:28;;;;;;;60.75;56.25;;;;;;;3.54;100.00;101884.19;5020660;28;20067;-77
2023/12/15 10:48:02;;;;;;;54.97;50.85;;;;;;;3.88;100.00;101896.09;5017673;28;20042;-77
2023/12/15 10:50:29;;;;;;;60.30;55.70;;;;;;;3.53;100.00;101901.75;5016648;28;20441;-77
2023/12/15 10:53:14;;;;;;;56.03;51.63;;;;;;;3.76;100.00;101893.69;5027987;28;20061;-77
2023/12/15 10:55:47;;;;;;;57.05;52.65;;;;;;;3.54;100.00;101907.81;5018683;28;20046;-77
2023/12/15 10:58:17;;;;;;;61.88;57.17;;;;;;;3.59;100.00;101919.59;5023675;28;20563;-77
2023/12/15 11:00:46;;;;;;;56.80;52.45;;;;;;;3.60;100.00;101925.69;5028902;28;20533;-87
2023/12/15 11:07:49;;;;;;;60.22;55.53;;;;;;;3.56;100.00;101940.88;5029491;28;20092;-77
2023/12/15 11:10:18;;;;;;;61.08;56.47;;;;;;;3.44;100.00;101929.63;5022890;28;20057;-88
2023/12/15 11:12:44;;;;;;;57.95;53.45;;;;;;;3.49;100.00;101937.13;5033886;28;20050;-87
2023/12/15 11:19:06;;;;;;;60.83;56.13;;;;;;;3.29;100.00;101930.09;5037574;28;20049;-77
2023/12/15 11:21:32;;;;;;;;;;;;;;;3.39;100.00;101931.00;5054841;28;20056;-77
2023/12/15 11:24:02;;;;;;;56.55;52.17;;;;;;;3.30;100.00;101934.38;5049478;28;19939;-77
2023/12/15 11:26:46;;;;;;;58.30;53.90;;;;;;;3.48;100.00;101960.88;5017613;28;20048;-77
2023/12/15 11:29:24;;;;;;;59.67;55.38;;;;;;;3.49;100.00;101949.44;5035560;28;20081;-77
2023/12/15 11:31:54;;;;;;;60.50;55.90;;;;;;;3.39;100.00;101939.72;5036214;28;20506;-77
2023/12/15 11:34:40;;;;;;;58.00;53.35;;;;;;;3.53;100.00;101946.41;5042530;28;20072;-78
2023/12/15 11:37:07;;;;;;;55.47;51.33;;;;;;;3.41;100.00;101953.53;5032283;28;20061;-77
2023/12/15 11:40:02;;;;;;;54.25;50.05;;;;;;;3.37;100.00;101953.91;5040596;28;20395;-77
2023/12/15 11:42:29;;;;;;;53.53;49.53;;;;;;;3.33;100.00;101961.22;5031344;28;20044;-74
2023/12/15 11:45:06;;;;;;;52.35;48.45;;;;;;;3.43;100.00;101963.91;5038142;28;20123;-77
2023/12/15 11:47:33;;;;;;;53.95;49.78;;;;;;;3.36;100.00;101968.00;5034862;28;20434;-77
2023/12/15 11:50:04;;;;;;;54.38;50.08;;;;;;;3.26;100.00;101954.81;5038902;28;20517;-77
2023/12/15 11:52:30;;;;;;;57.22;52.75;;;;;;;3.42;100.00;101970.97;5034479;28;20045;-74
2023/12/15 11:55:07;;;;;;;56.47;52.17;;;;;;;3.52;100.00;101964.94;5031671;28;20054;-74
2023/12/15 11:57:36;;;;;;;57.03;52.63;;;;;;;3.68;100.00;101967.91;5034470;28;20049;-75
2023/12/15 12:00:09;;;;;;;56.28;51.88;;;;;;;3.47;100.00;101975.00;5031282;28;20601;-74
2023/12/15 12:02:36;;;;;;;55.97;51.58;;;;;;;3.42;100.00;101981.47;5029401;28;20121;-74
2023/12/15 12:05:07;;;;;;;58.83;54.28;;;;;;;3.56;100.00;101982.91;5032785;28;20106;-74
2023/12/15 12:07:43;;;;;;;57.15;52.75;;;;;;;3.53;100.00;101977.94;5032633;28;20103;-74
2023/12/15 12:10:10;;;;;;;58.25;53.75;;;;;;;3.38;100.00;101982.66;5035235;28;20041;-74
2023/12/15 12:12:38;;;;;;;56.92;52.42;;;;;;;3.51;100.00;101979.88;5032667;28;20049;-74
2023/12/15 12:15:07;;;;;;;63.03;58.13;;;;;;;3.40;100.00;101995.69;5034564;28;20053;-74
2023/12/15 12:17:35;;;;;;;60.72;55.88;;;;;;;3.50;100.00;101979.97;5030637;28;20049;-74
2023/12/15 12:20:10;;;;;;;62.83;58.05;;;;;;;3.34;100.00;101994.41;5032278;28;20052;-74
2023/12/15 12:22:39;;;;;;;63.75;58.92;;;;;;;3.42;100.00;102005.13;5028262;28;20056;-74
2023/12/15 12:26:02;;;;;;;67.10;61.85;;;;;;;3.50;100.00;102004.47;5032822;28;20851;-77
2023/12/15 12:28:40;;;;;;;62.88;58.17;;;;;;;3.52;100.00;102006.97;5028299;28;20052;-78
2023/12/15 12:31:07;;;;;;;53.63;49.42;;;;;;;3.37;100.00;102001.19;5039277;28;20053;-77
2023/12/15 12:33:35;;;;;;;53.88;49.67;;;;;;;3.48;100.00;102019.53;5028401;28;20060;-78
2023/12/15 12:36:08;;;;;;;55.72;51.13;;;;;;;3.38;100.00;102014.19;5031956;28;20045;-77
2023/12/15 12:38:35;;;;;;;59.17;54.67;;;;;;;3.22;100.00;102008.53;5023396;28;20055;-77
2023/12/15 12:41:05;;;;;;;63.05;57.97;;;;;;;3.24;100.00;102027.66;5031854;28;20052;-78
2023/12/15 12:43:32;;;;;;;52.53;48.55;;;;;;;3.28;100.00;102021.16;5026814;28;20049;-78
2023/12/15 12:45:59;;;;;;;57.13;53.22;;;;;;;3.19;100.00;102020.13;5032323;28;20124;-77
2023/12/15 12:48:30;;;;;;;55.95;52.05;;;;;;;3.31;100.00;102009.59;5032700;28;20491;-88
2023/12/15 12:50:57;;;;;;;59.95;55.67;;;;;;;3.30;100.00;102007.91;5035225;28;20080;-87
2023/12/15 12:53:25;;;;;;;56.30;52.10;;;;;;;3.38;100.00;102031.75;5032773;28;20041;-87
2023/12/15 12:55:53;;;;;;;51.00;47.10;;;;;;;3.33;100.00;102033.91;5033728;28;20425;-88
2023/12/15 12:58:28;;;;;;;56.80;52.60;;;;;;;3.39;100.00;102033.44;5031472;28;20799;-78
2023/12/15 13:01:11;;;;;;;61.28;56.38;;;;;;;3.29;100.00;102020.19;5030627;28;20155;-77